sensor_id;sensor_type;location;lat;lon;timestamp;pressure;altitude;pressure_sealevel;temperature
71564;BMP180;59391;52.504;13.438;2023-04-01T00:00:57;99289.00;;;13.40
71564;BMP180;59391;52.504;13.438;2023-04-01T00:03:24;99277.00;;;13.40
71564;BMP180;59391;52.504;13.438;2023-04-01T00:05:50;99275.00;;;13.40
71564;BMP180;59391;52.504;13.438;2023-04-01T00:08:17;99274.00;;;13.50
71564;BMP180;59391;52.504;13.438;2023-04-01T00:10:43;99277.00;;;13.40
71564;BMP180;59391;52.504;13.438;2023-04-01T00:13:09;99277.00;;;13.50
71564;BMP180;59391;52.504;13.438;2023-04-01T00:15:35;99274.00;;;13.50
71564;BMP180;59391;52.504;13.438;2023-04-01T00:18:01;99279.00;;;13.50
71564;BMP180;59391;52.504;13.438;2023-04-01T00:20:27;99278.00;;;13.50
71564;BMP180;59391;52.504;13.438;2023-04-01T00:22:53;99276.00;;;13.60
71564;BMP180;59391;52.504;13.438;2023-04-01T00:25:18;99276.00;;;13.60
71564;BMP180;59391;52.504;13.438;2023-04-01T00:27:44;99282.00;;;13.60
71564;BMP180;59391;52.504;13.438;2023-04-01T00:30:11;99276.00;;;13.60
71564;BMP180;59391;52.504;13.438;2023-04-01T00:32:37;99277.00;;;13.60
71564;BMP180;59391;52.504;13.438;2023-04-01T00:35:03;99274.00;;;13.70
71564;BMP180;59391;52.504;13.438;2023-04-01T00:37:29;99268.00;;;13.70
71564;BMP180;59391;52.504;13.438;2023-04-01T00:39:56;99273.00;;;13.70
71564;BMP180;59391;52.504;13.438;2023-04-01T00:42:22;99270.00;;;13.70
71564;BMP180;59391;52.504;13.438;2023-04-01T00:44:53;99274.00;;;13.70
71564;BMP180;59391;52.504;13.438;2023-04-01T00:47:20;99266.00;;;13.70
71564;BMP180;59391;52.504;13.438;2023-04-01T00:49:50;99271.00;;;13.80
71564;BMP180;59391;52.504;13.438;2023-04-01T00:52:21;99273.00;;;13.70
71564;BMP180;59391;52.504;13.438;2023-04-01T00:54:53;99280.00;;;13.80
71564;BMP180;59391;52.504;13.438;2023-04-01T00:57:34;99271.00;;;13.70
71564;BMP180;59391;52.504;13.438;2023-04-01T01:00:06;99281.00;;;13.70
71564;BMP180;59391;52.504;13.438;2023-04-01T01:02:35;99278.00;;;13.70
71564;BMP180;59391;52.504;13.438;2023-04-01T01:05:01;99280.00;;;13.70
71564;BMP180;59391;52.504;13.438;2023-04-01T01:10:30;99281.00;;;13.70
71564;BMP180;59391;52.504;13.438;2023-04-01T01:13:15;99279.00;;;13.70
71564;BMP180;59391;52.504;13.438;2023-04-01T01:15:57;99281.00;;;13.60
71564;BMP180;59391;52.504;13.438;2023-04-01T01:21:52;99282.00;;;13.70
71564;BMP180;59391;52.504;13.438;2023-04-01T01:27:17;99273.00;;;13.60
71564;BMP180;59391;52.504;13.438;2023-04-01T01:30:25;99282.00;;;13.60
71564;BMP180;59391;52.504;13.438;2023-04-01T01:33:33;99284.00;;;13.70
71564;BMP180;59391;52.504;13.438;2023-04-01T01:36:04;99290.00;;;13.70
71564;BMP180;59391;52.504;13.438;2023-04-01T01:38:34;99291.00;;;13.70
71564;BMP180;59391;52.504;13.438;2023-04-01T01:41:03;99292.00;;;13.60
71564;BMP180;59391;52.504;13.438;2023-04-01T01:43:42;99291.00;;;13.70
71564;BMP180;59391;52.504;13.438;2023-04-01T01:46:14;99289.00;;;13.70
71564;BMP180;59391;52.504;13.438;2023-04-01T01:48:43;99282.00;;;13.70
71564;BMP180;59391;52.504;13.438;2023-04-01T01:51:10;99288.00;;;13.70
71564;BMP180;59391;52.504;13.438;2023-04-01T01:53:36;99286.00;;;13.70
71564;BMP180;59391;52.504;13.438;2023-04-01T01:56:02;99286.00;;;13.70
71564;BMP180;59391;52.504;13.438;2023-04-01T01:58:43;99288.00;;;13.70
71564;BMP180;59391;52.504;13.438;2023-04-01T02:01:18;99290.00;;;13.70
71564;BMP180;59391;52.504;13.438;2023-04-01T02:03:47;99299.00;;;13.70
71564;BMP180;59391;52.504;13.438;2023-04-01T02:06:18;99307.00;;;13.70
71564;BMP180;59391;52.504;13.438;2023-04-01T02:08:55;99295.00;;;13.70
71564;BMP180;59391;52.504;13.438;2023-04-01T02:11:38;99292.00;;;13.70
71564;BMP180;59391;52.504;13.438;2023-04-01T02:14:12;99295.00;;;13.70
71564;BMP180;59391;52.504;13.438;2023-04-01T02:16:47;99289.00;;;13.70
71564;BMP180;59391;52.504;13.438;2023-04-01T02:19:17;99300.00;;;13.70
71564;BMP180;59391;52.504;13.438;2023-04-01T02:21:53;99300.00;;;13.70
71564;BMP180;59391;52.504;13.438;2023-04-01T02:24:23;99292.00;;;13.70
71564;BMP180;59391;52.504;13.438;2023-04-01T02:26:51;99288.00;;;13.70
71564;BMP180;59391;52.504;13.438;2023-04-01T02:29:23;99287.00;;;13.70
71564;BMP180;59391;52.504;13.438;2023-04-01T02:31:51;99304.00;;;13.70
71564;BMP180;59391;52.504;13.438;2023-04-01T02:34:17;99300.00;;;13.70
71564;BMP180;59391;52.504;13.438;2023-04-01T02:36:44;99308.00;;;13.70
71564;BMP180;59391;52.504;13.438;2023-04-01T02:39:10;99304.00;;;13.70
71564;BMP180;59391;52.504;13.438;2023-04-01T02:41:40;99296.00;;;13.70
71564;BMP180;59391;52.504;13.438;2023-04-01T02:44:06;99307.00;;;13.70
71564;BMP180;59391;52.504;13.438;2023-04-01T02:46:32;99308.00;;;13.70
71564;BMP180;59391;52.504;13.438;2023-04-01T02:48:58;99308.00;;;13.80
71564;BMP180;59391;52.504;13.438;2023-04-01T02:51:25;99313.00;;;13.80
71564;BMP180;59391;52.504;13.438;2023-04-01T02:53:51;99315.00;;;13.80
71564;BMP180;59391;52.504;13.438;2023-04-01T02:56:16;99315.00;;;13.80
71564;BMP180;59391;52.504;13.438;2023-04-01T02:58:42;99325.00;;;13.80
71564;BMP180;59391;52.504;13.438;2023-04-01T03:01:08;99311.00;;;13.90
71564;BMP180;59391;52.504;13.438;2023-04-01T03:03:34;99320.00;;;13.90
71564;BMP180;59391;52.504;13.438;2023-04-01T03:06:06;99322.00;;;13.90
71564;BMP180;59391;52.504;13.438;2023-04-01T03:08:32;99321.00;;;13.90
71564;BMP180;59391;52.504;13.438;2023-04-01T03:10:57;99325.00;;;13.90
71564;BMP180;59391;52.504;13.438;2023-04-01T03:13:23;99324.00;;;13.90
71564;BMP180;59391;52.504;13.438;2023-04-01T03:15:49;99310.00;;;13.90
71564;BMP180;59391;52.504;13.438;2023-04-01T03:18:15;99322.00;;;13.90
71564;BMP180;59391;52.504;13.438;2023-04-01T03:20:40;99324.00;;;13.90
71564;BMP180;59391;52.504;13.438;2023-04-01T03:23:07;99320.00;;;13.90
71564;BMP180;59391;52.504;13.438;2023-04-01T03:25:33;99330.00;;;13.90
71564;BMP180;59391;52.504;13.438;2023-04-01T03:27:59;99323.00;;;13.90
71564;BMP180;59391;52.504;13.438;2023-04-01T03:30:26;99323.00;;;13.90
71564;BMP180;59391;52.504;13.438;2023-04-01T03:32:52;99332.00;;;14.00
71564;BMP180;59391;52.504;13.438;2023-04-01T03:35:18;99330.00;;;14.00
71564;BMP180;59391;52.504;13.438;2023-04-01T03:37:43;99334.00;;;14.00
71564;BMP180;59391;52.504;13.438;2023-04-01T03:40:10;99325.00;;;14.00
71564;BMP180;59391;52.504;13.438;2023-04-01T03:42:36;99331.00;;;14.00
71564;BMP180;59391;52.504;13.438;2023-04-01T03:45:04;99332.00;;;14.00
71564;BMP180;59391;52.504;13.438;2023-04-01T03:47:30;99333.00;;;14.00
71564;BMP180;59391;52.504;13.438;2023-04-01T03:49:55;99331.00;;;14.00
71564;BMP180;59391;52.504;13.438;2023-04-01T03:52:21;99339.00;;;14.00
71564;BMP180;59391;52.504;13.438;2023-04-01T03:54:47;99339.00;;;14.00
71564;BMP180;59391;52.504;13.438;2023-04-01T03:57:13;99348.00;;;14.00
71564;BMP180;59391;52.504;13.438;2023-04-01T03:59:38;99342.00;;;14.00
71564;BMP180;59391;52.504;13.438;2023-04-01T04:02:04;99352.00;;;14.00
71564;BMP180;59391;52.504;13.438;2023-04-01T04:04:30;99351.00;;;14.00
71564;BMP180;59391;52.504;13.438;2023-04-01T04:06:56;99355.00;;;14.00
71564;BMP180;59391;52.504;13.438;2023-04-01T04:09:22;99348.00;;;14.00
71564;BMP180;59391;52.504;13.438;2023-04-01T04:11:49;99355.00;;;14.00
71564;BMP180;59391;52.504;13.438;2023-04-01T04:14:15;99355.00;;;14.00
71564;BMP180;59391;52.504;13.438;2023-04-01T04:16:40;99361.00;;;14.00
71564;BMP180;59391;52.504;13.438;2023-04-01T04:19:06;99361.00;;;14.00
71564;BMP180;59391;52.504;13.438;2023-04-01T04:21:32;99363.00;;;14.00
71564;BMP180;59391;52.504;13.438;2023-04-01T04:24:02;99360.00;;;14.00
71564;BMP180;59391;52.504;13.438;2023-04-01T04:26:28;99366.00;;;14.10
71564;BMP180;59391;52.504;13.438;2023-04-01T04:28:54;99358.00;;;14.00
71564;BMP180;59391;52.504;13.438;2023-04-01T04:31:22;99367.00;;;14.00
71564;BMP180;59391;52.504;13.438;2023-04-01T04:33:49;99369.00;;;14.10
71564;BMP180;59391;52.504;13.438;2023-04-01T04:36:15;99366.00;;;14.00
71564;BMP180;59391;52.504;13.438;2023-04-01T04:38:41;99374.00;;;14.00
71564;BMP180;59391;52.504;13.438;2023-04-01T04:41:14;99376.00;;;14.00
71564;BMP180;59391;52.504;13.438;2023-04-01T04:43:41;99370.00;;;14.00
71564;BMP180;59391;52.504;13.438;2023-04-01T04:46:08;99375.00;;;14.00
71564;BMP180;59391;52.504;13.438;2023-04-01T04:48:34;99381.00;;;14.00
71564;BMP180;59391;52.504;13.438;2023-04-01T04:51:00;99380.00;;;14.00
71564;BMP180;59391;52.504;13.438;2023-04-01T04:53:26;99386.00;;;14.00
71564;BMP180;59391;52.504;13.438;2023-04-01T04:55:52;99387.00;;;14.00
71564;BMP180;59391;52.504;13.438;2023-04-01T04:58:18;99380.00;;;14.00
71564;BMP180;59391;52.504;13.438;2023-04-01T05:00:44;99386.00;;;14.00
71564;BMP180;59391;52.504;13.438;2023-04-01T05:03:11;99387.00;;;14.00
71564;BMP180;59391;52.504;13.438;2023-04-01T05:05:38;99373.00;;;14.00
71564;BMP180;59391;52.504;13.438;2023-04-01T05:08:05;99386.00;;;14.00
71564;BMP180;59391;52.504;13.438;2023-04-01T05:10:31;99384.00;;;14.00
71564;BMP180;59391;52.504;13.438;2023-04-01T05:12:57;99382.00;;;14.00
71564;BMP180;59391;52.504;13.438;2023-04-01T05:15:24;99395.00;;;14.00
71564;BMP180;59391;52.504;13.438;2023-04-01T05:17:50;99393.00;;;14.00
71564;BMP180;59391;52.504;13.438;2023-04-01T05:20:16;99393.00;;;14.00
71564;BMP180;59391;52.504;13.438;2023-04-01T05:22:42;99403.00;;;14.10
71564;BMP180;59391;52.504;13.438;2023-04-01T05:25:08;99404.00;;;14.10
71564;BMP180;59391;52.504;13.438;2023-04-01T05:27:34;99393.00;;;14.10
71564;BMP180;59391;52.504;13.438;2023-04-01T05:30:00;99401.00;;;14.00
71564;BMP180;59391;52.504;13.438;2023-04-01T05:32:26;99401.00;;;14.00
71564;BMP180;59391;52.504;13.438;2023-04-01T05:34:53;99404.00;;;14.00
71564;BMP180;59391;52.504;13.438;2023-04-01T05:37:19;99408.00;;;13.90
71564;BMP180;59391;52.504;13.438;2023-04-01T05:39:45;99404.00;;;13.90
71564;BMP180;59391;52.504;13.438;2023-04-01T05:42:11;99414.00;;;13.90
71564;BMP180;59391;52.504;13.438;2023-04-01T05:44:37;99407.00;;;13.90
71564;BMP180;59391;52.504;13.438;2023-04-01T05:47:04;99416.00;;;13.90
71564;BMP180;59391;52.504;13.438;2023-04-01T05:49:30;99416.00;;;13.90
71564;BMP180;59391;52.504;13.438;2023-04-01T05:51:56;99419.00;;;13.90
71564;BMP180;59391;52.504;13.438;2023-04-01T05:54:22;99414.00;;;13.90
71564;BMP180;59391;52.504;13.438;2023-04-01T05:56:48;99422.00;;;13.90
71564;BMP180;59391;52.504;13.438;2023-04-01T05:59:14;99420.00;;;13.90
71564;BMP180;59391;52.504;13.438;2023-04-01T06:01:40;99423.00;;;13.90
71564;BMP180;59391;52.504;13.438;2023-04-01T06:04:06;99427.00;;;14.00
71564;BMP180;59391;52.504;13.438;2023-04-01T06:06:32;99428.00;;;14.00
71564;BMP180;59391;52.504;13.438;2023-04-01T06:09:13;99435.00;;;13.90
71564;BMP180;59391;52.504;13.438;2023-04-01T06:12:20;99432.00;;;13.90
71564;BMP180;59391;52.504;13.438;2023-04-01T06:18:03;99445.00;;;13.90
71564;BMP180;59391;52.504;13.438;2023-04-01T06:20:45;99447.00;;;13.90
71564;BMP180;59391;52.504;13.438;2023-04-01T06:23:28;99440.00;;;13.90
71564;BMP180;59391;52.504;13.438;2023-04-01T06:35:25;99460.00;;;13.80
71564;BMP180;59391;52.504;13.438;2023-04-01T06:43:53;99464.00;;;13.60
71564;BMP180;59391;52.504;13.438;2023-04-01T06:46:45;99469.00;;;13.70
71564;BMP180;59391;52.504;13.438;2023-04-01T06:55:43;99468.00;;;13.70
71564;BMP180;59391;52.504;13.438;2023-04-01T06:58:23;99468.00;;;13.70
71564;BMP180;59391;52.504;13.438;2023-04-01T07:01:02;99471.00;;;13.70
71564;BMP180;59391;52.504;13.438;2023-04-01T07:03:40;99469.00;;;13.70
71564;BMP180;59391;52.504;13.438;2023-04-01T07:08:50;99472.00;;;13.70
71564;BMP180;59391;52.504;13.438;2023-04-01T07:11:38;99474.00;;;13.70
71564;BMP180;59391;52.504;13.438;2023-04-01T07:14:34;99470.00;;;13.80
71564;BMP180;59391;52.504;13.438;2023-04-01T07:17:16;99472.00;;;13.80
71564;BMP180;59391;52.504;13.438;2023-04-01T07:20:13;99484.00;;;13.70
71564;BMP180;59391;52.504;13.438;2023-04-01T07:22:47;99477.00;;;13.70
71564;BMP180;59391;52.504;13.438;2023-04-01T07:25:24;99475.00;;;13.70
71564;BMP180;59391;52.504;13.438;2023-04-01T07:27:53;99486.00;;;13.80
71564;BMP180;59391;52.504;13.438;2023-04-01T07:30:24;99487.00;;;13.80
71564;BMP180;59391;52.504;13.438;2023-04-01T07:33:14;99491.00;;;13.80
71564;BMP180;59391;52.504;13.438;2023-04-01T07:36:13;99499.00;;;13.90
71564;BMP180;59391;52.504;13.438;2023-04-01T07:39:35;99496.00;;;13.90
71564;BMP180;59391;52.504;13.438;2023-04-01T07:42:42;99493.00;;;13.90
71564;BMP180;59391;52.504;13.438;2023-04-01T07:45:44;99495.00;;;13.90
71564;BMP180;59391;52.504;13.438;2023-04-01T07:51:20;99494.00;;;14.00
71564;BMP180;59391;52.504;13.438;2023-04-01T07:54:05;99494.00;;;14.10
71564;BMP180;59391;52.504;13.438;2023-04-01T07:56:51;99497.00;;;14.20
71564;BMP180;59391;52.504;13.438;2023-04-01T08:02:59;99505.00;;;14.30
71564;BMP180;59391;52.504;13.438;2023-04-01T08:05:41;99507.00;;;14.30
71564;BMP180;59391;52.504;13.438;2023-04-01T08:22:46;99522.00;;;15.00
71564;BMP180;59391;52.504;13.438;2023-04-01T08:25:24;99523.00;;;15.00
71564;BMP180;59391;52.504;13.438;2023-04-01T08:28:08;99524.00;;;15.10
71564;BMP180;59391;52.504;13.438;2023-04-01T08:31:00;99538.00;;;15.00
71564;BMP180;59391;52.504;13.438;2023-04-01T08:33:30;99528.00;;;15.00
71564;BMP180;59391;52.504;13.438;2023-04-01T08:36:07;99545.00;;;14.90
71564;BMP180;59391;52.504;13.438;2023-04-01T08:38:57;99545.00;;;14.80
71564;BMP180;59391;52.504;13.438;2023-04-01T08:41:42;99544.00;;;14.80
71564;BMP180;59391;52.504;13.438;2023-04-01T08:47:42;99548.00;;;14.80
71564;BMP180;59391;52.504;13.438;2023-04-01T08:53:53;99553.00;;;14.80
71564;BMP180;59391;52.504;13.438;2023-04-01T09:04:51;99557.00;;;15.00
71564;BMP180;59391;52.504;13.438;2023-04-01T09:10:34;99561.00;;;15.20
71564;BMP180;59391;52.504;13.438;2023-04-01T09:13:42;99565.00;;;15.20
71564;BMP180;59391;52.504;13.438;2023-04-01T09:16:24;99570.00;;;15.30
71564;BMP180;59391;52.504;13.438;2023-04-01T09:19:08;99570.00;;;15.40
71564;BMP180;59391;52.504;13.438;2023-04-01T09:21:58;99572.00;;;15.50
71564;BMP180;59391;52.504;13.438;2023-04-01T09:27:54;99584.00;;;15.60
71564;BMP180;59391;52.504;13.438;2023-04-01T09:31:16;99595.00;;;15.50
71564;BMP180;59391;52.504;13.438;2023-04-01T09:36:43;99593.00;;;15.30
71564;BMP180;59391;52.504;13.438;2023-04-01T09:39:35;99600.00;;;15.20
71564;BMP180;59391;52.504;13.438;2023-04-01T09:44:58;99609.00;;;15.10
71564;BMP180;59391;52.504;13.438;2023-04-01T09:51:21;99621.00;;;15.00
71564;BMP180;59391;52.504;13.438;2023-04-01T10:00:44;99628.00;;;14.70
71564;BMP180;59391;52.504;13.438;2023-04-01T10:13:27;99634.00;;;14.60
71564;BMP180;59391;52.504;13.438;2023-04-01T10:19:39;99641.00;;;14.50
71564;BMP180;59391;52.504;13.438;2023-04-01T10:25:36;99640.00;;;14.50
71564;BMP180;59391;52.504;13.438;2023-04-01T10:28:36;99642.00;;;14.50
71564;BMP180;59391;52.504;13.438;2023-04-01T10:31:35;99645.00;;;14.50
71564;BMP180;59391;52.504;13.438;2023-04-01T10:38:01;99656.00;;;14.50
71564;BMP180;59391;52.504;13.438;2023-04-01T10:43:58;99649.00;;;14.40
71564;BMP180;59391;52.504;13.438;2023-04-01T10:47:09;99654.00;;;14.50
71564;BMP180;59391;52.504;13.438;2023-04-01T10:52:58;99656.00;;;14.40
71564;BMP180;59391;52.504;13.438;2023-04-01T11:08:16;99667.00;;;14.30
71564;BMP180;59391;52.504;13.438;2023-04-01T11:18:02;99686.00;;;14.30
71564;BMP180;59391;52.504;13.438;2023-04-01T11:27:49;99683.00;;;14.30
71564;BMP180;59391;52.504;13.438;2023-04-01T11:33:44;99692.00;;;14.40
71564;BMP180;59391;52.504;13.438;2023-04-01T11:37:23;99702.00;;;14.40
71564;BMP180;59391;52.504;13.438;2023-04-01T11:40:23;99703.00;;;14.30
71564;BMP180;59391;52.504;13.438;2023-04-01T11:43:08;99709.00;;;14.30
71564;BMP180;59391;52.504;13.438;2023-04-01T11:46:11;99705.00;;;14.30
71564;BMP180;59391;52.504;13.438;2023-04-01T11:48:53;99710.00;;;14.30
71564;BMP180;59391;52.504;13.438;2023-04-01T11:52:04;99711.00;;;14.30
71564;BMP180;59391;52.504;13.438;2023-04-01T12:06:42;99739.00;;;14.10
71564;BMP180;59391;52.504;13.438;2023-04-01T12:09:47;99740.00;;;14.10
71564;BMP180;59391;52.504;13.438;2023-04-01T12:12:48;99744.00;;;14.10
71564;BMP180;59391;52.504;13.438;2023-04-01T12:19:19;99753.00;;;14.10
71564;BMP180;59391;52.504;13.438;2023-04-01T12:22:09;99756.00;;;14.00
71564;BMP180;59391;52.504;13.438;2023-04-01T12:25:17;99756.00;;;14.10
71564;BMP180;59391;52.504;13.438;2023-04-01T12:36:50;99766.00;;;14.00
71564;BMP180;59391;52.504;13.438;2023-04-01T12:40:05;99763.00;;;14.00
71564;BMP180;59391;52.504;13.438;2023-04-01T12:45:29;99771.00;;;14.00
71564;BMP180;59391;52.504;13.438;2023-04-01T12:48:14;99775.00;;;14.00
71564;BMP180;59391;52.504;13.438;2023-04-01T12:51:15;99778.00;;;14.00
71564;BMP180;59391;52.504;13.438;2023-04-01T13:00:00;99788.00;;;14.00
71564;BMP180;59391;52.504;13.438;2023-04-01T13:03:15;99794.00;;;14.00
71564;BMP180;59391;52.504;13.438;2023-04-01T13:09:15;99803.00;;;14.00
71564;BMP180;59391;52.504;13.438;2023-04-01T13:12:23;99801.00;;;14.00
71564;BMP180;59391;52.504;13.438;2023-04-01T13:17:49;99807.00;;;13.90
71564;BMP180;59391;52.504;13.438;2023-04-01T13:23:37;99825.00;;;13.90
71564;BMP180;59391;52.504;13.438;2023-04-01T13:26:22;99820.00;;;13.80
71564;BMP180;59391;52.504;13.438;2023-04-01T13:29:20;99833.00;;;13.80
71564;BMP180;59391;52.504;13.438;2023-04-01T13:34:47;99838.00;;;13.90
71564;BMP180;59391;52.504;13.438;2023-04-01T13:43:31;99850.00;;;13.90
71564;BMP180;59391;52.504;13.438;2023-04-01T13:46:23;99851.00;;;13.80
71564;BMP180;59391;52.504;13.438;2023-04-01T13:58:46;99859.00;;;13.70
71564;BMP180;59391;52.504;13.438;2023-04-01T14:01:42;99856.00;;;13.70
71564;BMP180;59391;52.504;13.438;2023-04-01T14:04:47;99865.00;;;13.60
71564;BMP180;59391;52.504;13.438;2023-04-01T14:10:20;99875.00;;;13.60
71564;BMP180;59391;52.504;13.438;2023-04-01T14:13:31;99867.00;;;13.60
71564;BMP180;59391;52.504;13.438;2023-04-01T14:16:27;99877.00;;;13.50
71564;BMP180;59391;52.504;13.438;2023-04-01T14:25:54;99897.00;;;13.40
71564;BMP180;59391;52.504;13.438;2023-04-01T14:29:01;99893.00;;;13.50
71564;BMP180;59391;52.504;13.438;2023-04-01T14:34:48;99911.00;;;13.40
71564;BMP180;59391;52.504;13.438;2023-04-01T14:37:40;99901.00;;;13.40
71564;BMP180;59391;52.504;13.438;2023-04-01T14:40:36;99917.00;;;13.40
71564;BMP180;59391;52.504;13.438;2023-04-01T14:43:12;99909.00;;;13.40
71564;BMP180;59391;52.504;13.438;2023-04-01T14:51:33;99920.00;;;13.30
71564;BMP180;59391;52.504;13.438;2023-04-01T14:54:32;99924.00;;;13.20
71564;BMP180;59391;52.504;13.438;2023-04-01T14:57:15;99930.00;;;13.10
71564;BMP180;59391;52.504;13.438;2023-04-01T15:02:59;99940.00;;;13.00
71564;BMP180;59391;52.504;13.438;2023-04-01T15:08:41;99943.00;;;13.00
71564;BMP180;59391;52.504;13.438;2023-04-01T15:11:38;99949.00;;;13.00
71564;BMP180;59391;52.504;13.438;2023-04-01T15:17:55;99949.00;;;13.00
71564;BMP180;59391;52.504;13.438;2023-04-01T15:20:55;99953.00;;;12.90
71564;BMP180;59391;52.504;13.438;2023-04-01T15:23:43;99956.00;;;12.80
71564;BMP180;59391;52.504;13.438;2023-04-01T15:26:28;99967.00;;;12.70
71564;BMP180;59391;52.504;13.438;2023-04-01T15:29:29;99967.00;;;12.70
71564;BMP180;59391;52.504;13.438;2023-04-01T15:32:29;99966.00;;;12.70
71564;BMP180;59391;52.504;13.438;2023-04-01T15:35:27;99967.00;;;12.60
71564;BMP180;59391;52.504;13.438;2023-04-01T15:41:18;99979.00;;;12.50
71564;BMP180;59391;52.504;13.438;2023-04-01T15:43:50;99988.00;;;12.50
71564;BMP180;59391;52.504;13.438;2023-04-01T15:46:49;99988.00;;;12.50
71564;BMP180;59391;52.504;13.438;2023-04-01T15:49:43;99989.00;;;12.40
71564;BMP180;59391;52.504;13.438;2023-04-01T15:52:43;100003.00;;;12.40
71564;BMP180;59391;52.504;13.438;2023-04-01T15:55:59;100001.00;;;12.30
71564;BMP180;59391;52.504;13.438;2023-04-01T15:58:57;100006.00;;;12.30
71564;BMP180;59391;52.504;13.438;2023-04-01T16:05:00;100020.00;;;12.30
71564;BMP180;59391;52.504;13.438;2023-04-01T16:08:07;100012.00;;;12.30
71564;BMP180;59391;52.504;13.438;2023-04-01T16:14:09;100019.00;;;12.20
71564;BMP180;59391;52.504;13.438;2023-04-01T16:19:56;100027.00;;;12.10
71564;BMP180;59391;52.504;13.438;2023-04-01T16:22:34;100032.00;;;12.00
71564;BMP180;59391;52.504;13.438;2023-04-01T16:28:38;100057.00;;;11.90
71564;BMP180;59391;52.504;13.438;2023-04-01T16:31:55;100063.00;;;11.90
71564;BMP180;59391;52.504;13.438;2023-04-01T16:35:16;100063.00;;;11.80
71564;BMP180;59391;52.504;13.438;2023-04-01T16:43:56;100068.00;;;11.70
71564;BMP180;59391;52.504;13.438;2023-04-01T16:46:58;100083.00;;;11.70
71564;BMP180;59391;52.504;13.438;2023-04-01T16:49:46;100095.00;;;11.70
71564;BMP180;59391;52.504;13.438;2023-04-01T16:52:34;100095.00;;;11.60
71564;BMP180;59391;52.504;13.438;2023-04-01T16:55:15;100098.00;;;11.60
71564;BMP180;59391;52.504;13.438;2023-04-01T16:58:23;100107.00;;;11.60
71564;BMP180;59391;52.504;13.438;2023-04-01T17:01:15;100096.00;;;11.50
71564;BMP180;59391;52.504;13.438;2023-04-01T17:03:50;100113.00;;;11.50
71564;BMP180;59391;52.504;13.438;2023-04-01T17:06:49;100106.00;;;11.50
71564;BMP180;59391;52.504;13.438;2023-04-01T17:12:28;100133.00;;;11.40
71564;BMP180;59391;52.504;13.438;2023-04-01T17:21:15;100144.00;;;11.30
71564;BMP180;59391;52.504;13.438;2023-04-01T17:23:53;100146.00;;;11.30
71564;BMP180;59391;52.504;13.438;2023-04-01T17:26:40;100158.00;;;11.20
71564;BMP180;59391;52.504;13.438;2023-04-01T17:35:59;100180.00;;;11.00
71564;BMP180;59391;52.504;13.438;2023-04-01T17:38:56;100183.00;;;11.00
71564;BMP180;59391;52.504;13.438;2023-04-01T17:41:47;100185.00;;;10.90
71564;BMP180;59391;52.504;13.438;2023-04-01T17:44:39;100187.00;;;10.90
71564;BMP180;59391;52.504;13.438;2023-04-01T17:53:19;100196.00;;;10.70
71564;BMP180;59391;52.504;13.438;2023-04-01T17:56:03;100211.00;;;10.70
71564;BMP180;59391;52.504;13.438;2023-04-01T17:59:09;100206.00;;;10.60
71564;BMP180;59391;52.504;13.438;2023-04-01T18:01:59;100221.00;;;10.60
71564;BMP180;59391;52.504;13.438;2023-04-01T18:05:12;100206.00;;;10.50
71564;BMP180;59391;52.504;13.438;2023-04-01T18:10:41;100224.00;;;10.50
71564;BMP180;59391;52.504;13.438;2023-04-01T18:19:07;100243.00;;;10.40
71564;BMP180;59391;52.504;13.438;2023-04-01T18:22:08;100249.00;;;10.40
71564;BMP180;59391;52.504;13.438;2023-04-01T18:24:47;100252.00;;;10.40
71564;BMP180;59391;52.504;13.438;2023-04-01T18:27:18;100263.00;;;10.40
71564;BMP180;59391;52.504;13.438;2023-04-01T18:30:08;100264.00;;;10.30
71564;BMP180;59391;52.504;13.438;2023-04-01T18:33:02;100267.00;;;10.20
71564;BMP180;59391;52.504;13.438;2023-04-01T18:39:07;100292.00;;;10.20
71564;BMP180;59391;52.504;13.438;2023-04-01T18:45:03;100296.00;;;10.20
71564;BMP180;59391;52.504;13.438;2023-04-01T18:48:15;100303.00;;;10.20
71564;BMP180;59391;52.504;13.438;2023-04-01T18:50:56;100313.00;;;10.10
71564;BMP180;59391;52.504;13.438;2023-04-01T18:53:41;100319.00;;;10.10
71564;BMP180;59391;52.504;13.438;2023-04-01T18:56:22;100325.00;;;10.00
71564;BMP180;59391;52.504;13.438;2023-04-01T19:02:20;100321.00;;;10.00
71564;BMP180;59391;52.504;13.438;2023-04-01T19:05:09;100337.00;;;10.00
71564;BMP180;59391;52.504;13.438;2023-04-01T19:13:34;100344.00;;;10.00
71564;BMP180;59391;52.504;13.438;2023-04-01T19:19:29;100351.00;;;10.00
71564;BMP180;59391;52.504;13.438;2023-04-01T19:25:40;100359.00;;;9.90
71564;BMP180;59391;52.504;13.438;2023-04-01T19:28:54;100366.00;;;9.80
71564;BMP180;59391;52.504;13.438;2023-04-01T19:32:24;100370.00;;;9.80
71564;BMP180;59391;52.504;13.438;2023-04-01T19:35:25;100376.00;;;9.70
71564;BMP180;59391;52.504;13.438;2023-04-01T19:38:14;100380.00;;;9.70
71564;BMP180;59391;52.504;13.438;2023-04-01T19:40:55;100377.00;;;9.70
71564;BMP180;59391;52.504;13.438;2023-04-01T19:46:36;100392.00;;;9.60
71564;BMP180;59391;52.504;13.438;2023-04-01T19:52:09;100398.00;;;9.60
71564;BMP180;59391;52.504;13.438;2023-04-01T19:58:31;100416.00;;;9.50
71564;BMP180;59391;52.504;13.438;2023-04-01T20:01:00;100428.00;;;9.50
71564;BMP180;59391;52.504;13.438;2023-04-01T20:03:49;100420.00;;;9.40
71564;BMP180;59391;52.504;13.438;2023-04-01T20:06:46;100423.00;;;9.40
71564;BMP180;59391;52.504;13.438;2023-04-01T20:09:36;100432.00;;;9.40
71564;BMP180;59391;52.504;13.438;2023-04-01T20:12:27;100436.00;;;9.40
71564;BMP180;59391;52.504;13.438;2023-04-01T20:14:58;100450.00;;;9.40
71564;BMP180;59391;52.504;13.438;2023-04-01T20:17:38;100459.00;;;9.40
71564;BMP180;59391;52.504;13.438;2023-04-01T20:25:40;100467.00;;;9.40
71564;BMP180;59391;52.504;13.438;2023-04-01T20:31:02;100484.00;;;9.40
71564;BMP180;59391;52.504;13.438;2023-04-01T20:34:21;100484.00;;;9.30
71564;BMP180;59391;52.504;13.438;2023-04-01T20:37:23;100488.00;;;9.30
71564;BMP180;59391;52.504;13.438;2023-04-01T20:40:26;100495.00;;;9.20